CST,Max TemperatureF,Mean TemperatureF,Min TemperatureF,Max Dew PointF,MeanDew PointF,Min DewpointF,Max Humidity, Mean Humidity, Min Humidity, Max Sea Level PressureIn, Mean Sea Level PressureIn, Min Sea Level PressureIn, Max VisibilityMiles, Mean VisibilityMiles, Min VisibilityMiles, Max Wind SpeedMPH, Mean Wind SpeedMPH, Max Gust SpeedMPH,PrecipitationIn, CloudCover, Events, WindDirDegrees
2014-1-1,53,42,30,30,24,19,69,52,35,30.20,30.04,29.91,10,10,10,21,4,29,0.00,2,,146
2014-1-2,33,24,15,19,8,1,68,54,40,30.47,30.30,30.02,10,10,7,23,13,29,0.00,2,,318
2014-1-3,37,22,8,12,7,1,79,50,33,30.47,30.29,30.06,10,10,8,14,4,25,0.00,0,,151
2014-1-4,39,34,28,30,21,12,81,59,45,30.06,29.94,29.84,10,9,4,13,8,20,0.00,5,,138
2014-1-5,35,22,8,30,13,-8,81,66,44,30.42,30.01,29.74,10,7,1,22,9,32,0.00,6,,328
2014-1-6,12,6,1,-8,-10,-15,66,48,37,30.58,30.50,30.41,10,10,10,18,11,26,0.00,0,,300
2014-1-7,39,20,0,12,3,-9,78,51,33,30.49,30.34,30.23,10,10,10,12,2,21,0.00,0,,178
2014-1-8,32,26,21,25,19,12,80,68,44,30.35,30.30,30.26,10,7,2,7,2,,0.00,5,,114
2014-1-9,33,32,30,28,27,25,87,81,80,30.33,30.22,30.10,10,4,1,6,1,,0.00,8,,102
2014-1-10,51,42,33,45,38,28,87,81,61,30.08,29.81,29.60,10,6,0,16,5,26,0.00,6,,154
2014-1-11,55,45,35,34,29,25,75,59,41,30.00,29.84,29.66,10,10,10,18,7,25,0.00,1,,271
2014-1-12,66,46,26,30,26,19,80,45,23,30.00,29.85,29.68,10,10,10,18,6,29,0.00,0,,181
2014-1-13,59,48,37,43,29,21,63,43,31,29.93,29.81,29.67,10,10,10,17,9,24,0.00,1,,276
2014-1-14,51,42,33,28,20,9,56,40,29,30.16,29.99,29.85,10,10,10,17,6,28,0.00,0,,301
2014-1-15,37,30,24,12,6,1,54,35,22,30.24,30.15,29.98,10,10,9,17,9,25,0.00,1,,305
2014-1-16,55,42,30,27,19,10,48,38,30,29.96,29.88,29.83,10,10,10,22,7,33,0.00,2,,276
2014-1-17,39,32,23,18,4,-4,45,33,22,30.15,30.09,29.96,10,10,10,26,14,34,0.00,0,,294
2014-1-18,57,37,17,25,16,1,59,39,25,30.11,29.92,29.75,10,10,10,25,8,34,0.00,2,,270
2014-1-19,60,42,24,19,17,12,64,40,16,30.15,30.04,29.91,10,10,10,16,8,30,0.00,0,,250
2014-1-20,62,44,26,28,23,18,69,43,26,30.06,29.92,29.83,10,10,5,21,4,31,0.00,0,,343
2014-1-21,42,30,17,19,5,-2,54,42,27,30.37,30.23,30.04,10,10,9,21,12,38,0.00,2,,325
2014-1-22,42,28,14,18,10,3,68,48,34,30.24,30.14,30.06,10,10,10,17,3,30,0.00,0,,313
2014-1-23,32,20,6,10,-4,-9,56,36,28,30.75,30.60,30.25,10,10,10,16,9,24,0.00,0,,348
2014-1-24,39,20,1,5,-4,-9,66,38,15,30.73,30.39,29.96,10,10,10,14,3,21,0.00,0,,209
2014-1-25,57,44,32,28,21,5,70,40,28,29.99,29.93,29.84,10,10,10,21,8,29,0.00,3,,287
2014-1-26,71,48,26,34,27,19,75,46,22,29.91,29.75,29.63,10,10,10,21,5,32,0.00,0,,242
2014-1-27,42,30,17,19,-3,-9,47,31,24,30.41,30.28,29.93,10,10,10,22,13,33,0.00,0,,353
2014-1-28,26,19,12,-2,-6,-9,53,34,24,30.49,30.41,30.34,10,10,10,12,7,,0.00,1,,351
2014-1-29,39,22,6,10,4,-2,73,45,26,30.37,30.28,30.12,10,10,10,10,2,17,0.00,0,,190
2014-1-30,46,36,26,23,14,7,60,42,26,30.11,29.96,29.84,10,10,10,20,7,28,0.00,0,,179
2014-1-31,44,37,30,36,27,19,81,64,45,29.98,29.92,29.86,10,9,2,7,2,,0.00,7,,104